Time;durP1;ratioP1;P1;durP2;ratioP2;P2;SDS_P1;SDS_P2;PMS_P1;PMS_P2;Temp;Humidity;BMP_temperature;BMP_pressure;BME280_temperature;BME280_humidity;BME280_pressure;Samples;Min_cycle;Max_cycle;Signal;HPM_P1;HPM_P2
2022/07/26 00:01:02;;;;;;;3.23;2.90;;;22.80;89.20;23.30;96446.00;;;;5074363;28;20220;-90
2022/07/26 00:03:29;;;;;;;3.80;3.43;;;22.80;89.30;23.30;96439.00;;;;5074450;28;20196;-91
2022/07/26 00:05:57;;;;;;;2.90;2.70;;;22.80;89.40;23.30;96426.00;;;;5074893;28;20196;-90
2022/07/26 00:08:24;;;;;;;3.73;3.00;;;22.80;89.70;23.30;96420.00;;;;5075358;28;20220;-90
2022/07/26 00:10:52;;;;;;;2.70;2.50;;;22.80;89.90;23.30;96413.00;;;;5074240;28;20207;-90
2022/07/26 00:13:22;;;;;;;3.60;2.60;;;22.80;90.00;23.40;96430.00;;;;5075329;28;20232;-90
2022/07/26 00:15:50;;;;;;;2.67;2.47;;;22.80;90.00;23.40;96416.00;;;;5074764;28;20663;-90
2022/07/26 00:18:19;;;;;;;4.60;2.97;;;22.80;90.00;23.40;96429.00;;;;5074419;28;20688;-90
2022/07/26 00:20:47;;;;;;;2.80;2.60;;;22.80;90.10;23.40;96427.00;;;;5073640;28;20294;-89
2022/07/26 00:23:15;;;;;;;2.70;2.50;;;22.80;90.10;23.50;96422.00;;;;5074454;28;20271;-89
2022/07/26 00:25:42;;;;;;;2.87;2.63;;;22.90;90.20;23.50;96418.00;;;;5074200;28;20245;-90
2022/07/26 00:28:09;;;;;;;2.60;2.40;;;22.80;90.20;23.50;96415.00;;;;5074197;28;20211;-89
2022/07/26 00:30:38;;;;;;;2.70;2.50;;;22.90;90.10;23.50;96397.00;;;;5074028;28;20204;-90
2022/07/26 00:33:06;;;;;;;2.93;2.03;;;22.90;90.00;23.50;96399.00;;;;5074074;28;20207;-90
2022/07/26 00:35:34;;;;;;;2.83;2.33;;;22.90;90.00;23.50;96406.00;;;;5073418;28;20276;-91
2022/07/26 00:38:01;;;;;;;3.30;2.30;;;22.90;90.00;23.50;96420.00;;;;5073748;28;20232;-89
2022/07/26 00:40:28;;;;;;;2.80;2.50;;;22.90;90.10;23.50;96421.00;;;;5074250;28;20224;-90
2022/07/26 00:42:56;;;;;;;2.13;2.00;;;22.90;90.10;23.50;96413.00;;;;5074428;28;20203;-89
2022/07/26 00:45:23;;;;;;;2.77;2.20;;;22.90;90.10;23.50;96416.00;;;;5074107;28;20279;-90
2022/07/26 00:47:52;;;;;;;3.30;3.00;;;22.90;90.00;23.40;96404.00;;;;5074052;28;20220;-89
2022/07/26 00:50:20;;;;;;;4.07;2.20;;;22.90;90.00;23.40;96404.00;;;;5073833;28;20782;-89
2022/07/26 00:52:50;;;;;;;2.20;2.00;;;22.90;90.10;23.40;96405.00;;;;5073383;28;20265;-89
2022/07/26 00:55:19;;;;;;;2.50;2.30;;;22.80;90.10;23.40;96399.00;;;;5073316;28;20196;-89
2022/07/26 00:57:49;;;;;;;2.60;2.40;;;22.80;90.20;23.50;96385.00;;;;5073687;28;20224;-89
2022/07/26 01:00:21;;;;;;;2.90;2.63;;;22.80;90.20;23.50;96387.00;;;;5073713;28;20191;-89
2022/07/26 01:02:49;;;;;;;3.20;2.30;;;22.80;90.30;23.50;96384.00;;;;5073423;28;20188;-89
2022/07/26 01:05:18;;;;;;;2.83;2.57;;;22.90;90.30;23.40;96377.00;;;;5073626;28;20230;-90
2022/07/26 01:07:46;;;;;;;2.40;2.20;;;22.80;90.30;23.50;96378.00;;;;5074420;28;20273;-90
2022/07/26 01:10:14;;;;;;;2.83;2.27;;;22.90;90.30;23.50;96371.00;;;;5073548;28;20249;-90
2022/07/26 01:12:43;;;;;;;3.83;2.30;;;22.90;90.30;23.50;96380.00;;;;5073509;28;20234;-90
2022/07/26 01:15:14;;;;;;;2.57;2.37;;;22.90;90.40;23.50;96374.00;;;;5072736;28;20196;-90
2022/07/26 01:17:42;;;;;;;2.53;2.33;;;22.90;90.30;23.50;96385.00;;;;5072154;28;20243;-91
2022/07/26 01:20:13;;;;;;;2.60;2.23;;;22.90;90.40;23.50;96372.00;;;;5072791;28;20219;-90
2022/07/26 01:22:46;;;;;;;2.40;2.20;;;22.90;90.40;23.50;96378.00;;;;5072466;28;20200;-90
2022/07/26 01:25:13;;;;;;;2.97;2.37;;;22.90;90.40;23.50;96377.00;;;;5071711;28;20234;-90
2022/07/26 01:27:41;;;;;;;2.40;2.20;;;22.90;90.40;23.50;96380.00;;;;5072159;28;20223;-90
2022/07/26 01:30:12;;;;;;;2.47;2.30;;;22.90;90.40;23.50;96379.00;;;;5072420;28;20241;-90
2022/07/26 01:32:40;;;;;;;2.80;2.30;;;22.80;90.40;23.50;96367.00;;;;5072228;28;20192;-90
2022/07/26 01:35:10;;;;;;;2.63;2.30;;;22.90;90.40;23.50;96386.00;;;;5072324;28;20222;-89
2022/07/26 01:37:37;;;;;;;2.83;2.27;;;22.90;90.50;23.50;96377.00;;;;5072453;28;20238;-90
2022/07/26 01:40:09;;;;;;;3.60;2.37;;;22.90;90.50;23.50;96364.00;;;;5072412;28;20195;-89
2022/07/26 01:42:39;;;;;;;2.30;2.10;;;22.90;90.60;23.50;96373.00;;;;5072111;28;20216;-89
2022/07/26 01:45:08;;;;;;;2.40;2.13;;;22.90;90.60;23.50;96375.00;;;;5072122;28;20299;-89
2022/07/26 01:47:35;;;;;;;2.93;2.70;;;22.90;90.60;23.50;96379.00;;;;5072019;28;20680;-89
2022/07/26 01:50:05;;;;;;;2.47;2.30;;;22.90;90.60;23.60;96377.00;;;;5071975;28;20188;-89
2022/07/26 01:52:34;;;;;;;2.57;2.37;;;22.90;90.70;23.60;96383.00;;;;5071797;28;20253;-89
2022/07/26 01:55:02;;;;;;;3.03;2.27;;;22.90;90.70;23.60;96379.00;;;;5072415;28;20188;-89
2022/07/26 01:57:30;;;;;;;2.70;2.50;;;22.90;90.70;23.60;96372.00;;;;5072201;28;20200;-89
2022/07/26 01:59:57;;;;;;;2.60;2.40;;;22.90;90.70;23.60;96376.00;;;;5072341;28;20195;-90
2022/07/26 02:02:25;;;;;;;3.10;2.50;;;22.90;90.70;23.60;96364.00;;;;5071559;28;20224;-89
2022/07/26 02:04:58;;;;;;;2.80;2.60;;;22.90;90.70;23.70;96374.00;;;;5072027;28;20195;-90
2022/07/26 02:07:25;;;;;;;3.40;2.10;;;23.00;90.80;23.70;96372.00;;;;5071763;28;20203;-88
2022/07/26 02:09:53;;;;;;;2.93;2.70;;;23.00;90.80;23.70;96363.00;;;;5072320;28;20207;-90
2022/07/26 02:12:20;;;;;;;2.80;2.60;;;23.00;90.80;23.70;96357.00;;;;5072281;28;20261;-90
2022/07/26 02:14:49;;;;;;;3.10;2.80;;;23.00;91.10;23.70;96366.00;;;;5072217;28;20745;-89
2022/07/26 02:17:17;;;;;;;2.23;2.13;;;23.00;90.70;23.70;96364.00;;;;5051553;28;20246;-89
2022/07/26 02:19:45;;;;;;;2.33;2.13;;;23.00;90.80;23.70;96365.00;;;;5071293;28;20252;-88
2022/07/26 02:22:12;;;;;;;2.60;2.40;;;23.00;90.80;23.80;96358.00;;;;5071598;28;20861;-88
2022/07/26 02:24:39;;;;;;;3.50;2.53;;;23.00;90.90;23.80;96353.00;;;;5071607;28;20616;-89
2022/07/26 02:27:07;;;;;;;2.67;2.47;;;23.00;90.90;23.80;96344.00;;;;5071502;28;20588;-89
2022/07/26 02:29:35;;;;;;;2.90;2.70;;;23.10;90.90;23.80;96341.00;;;;5071900;28;20289;-88
2022/07/26 02:32:04;;;;;;;3.37;2.77;;;23.10;90.90;23.80;96335.00;;;;5071558;28;20714;-89
2022/07/26 02:34:32;;;;;;;3.13;2.70;;;23.10;90.90;23.80;96352.00;;;;5071627;28;20246;-88
2022/07/26 02:36:59;;;;;;;2.67;2.50;;;23.10;90.90;23.80;96340.00;;;;5071591;28;20228;-89
2022/07/26 02:39:27;;;;;;;2.77;2.57;;;23.10;91.20;23.80;96351.00;;;;5071234;28;20260;-89
2022/07/26 02:41:55;;;;;;;3.70;2.90;;;23.10;90.90;23.80;96358.00;;;;5071072;28;20224;-89
2022/07/26 02:44:23;;;;;;;4.77;2.73;;;23.10;90.90;23.90;96357.00;;;;5073386;28;20203;-88
2022/07/26 02:46:51;;;;;;;3.10;2.90;;;23.10;90.90;23.90;96356.00;;;;5075419;28;20224;-89
2022/07/26 02:49:21;;;;;;;2.70;2.50;;;23.10;90.90;23.90;96355.00;;;;5075208;28;20216;-89
2022/07/26 02:51:48;;;;;;;3.37;3.07;;;23.10;90.90;23.90;96354.00;;;;5074854;28;20672;-89
2022/07/26 02:54:16;;;;;;;3.00;2.80;;;23.10;90.80;23.90;96358.00;;;;5074837;28;20204;-88
2022/07/26 02:56:43;;;;;;;2.70;2.50;;;23.10;90.80;23.90;96355.00;;;;5075147;28;20212;-89
2022/07/26 02:59:11;;;;;;;3.17;2.67;;;23.10;90.80;23.90;96358.00;;;;5074557;28;20231;-88
2022/07/26 03:01:38;;;;;;;3.10;2.80;;;23.10;90.90;23.90;96366.00;;;;5075056;28;20270;-88
2022/07/26 03:04:07;;;;;;;3.10;2.80;;;23.10;90.90;23.90;96364.00;;;;5074857;28;20199;-88
2022/07/26 03:06:35;;;;;;;4.10;2.77;;;23.10;90.90;23.90;96359.00;;;;5075131;28;20196;-89
2022/07/26 03:09:03;;;;;;;3.30;3.03;;;23.10;90.90;23.90;96360.00;;;;5075020;28;20215;-89
2022/07/26 03:11:31;;;;;;;3.27;2.97;;;23.10;90.90;23.90;96350.00;;;;5075031;28;20232;-89
2022/07/26 03:13:58;;;;;;;3.30;3.00;;;23.10;90.90;23.90;96362.00;;;;5074624;28;20192;-88
2022/07/26 03:16:25;;;;;;;3.17;2.70;;;23.10;90.90;23.90;96362.00;;;;5074826;28;20600;-89
2022/07/26 03:18:52;;;;;;;3.37;3.10;;;23.10;90.90;23.90;96358.00;;;;5074727;28;20286;-90
2022/07/26 03:21:20;;;;;;;3.00;2.73;;;23.10;91.00;23.90;96362.00;;;;5074371;28;20224;-89
2022/07/26 03:23:48;;;;;;;3.57;3.10;;;23.10;91.00;23.90;96357.00;;;;5074523;28;20265;-89
2022/07/26 03:26:16;;;;;;;3.00;2.70;;;23.10;91.00;23.90;96355.00;;;;5074160;28;20654;-89
2022/07/26 03:28:44;;;;;;;4.07;2.87;;;23.10;91.00;23.90;96362.00;;;;5068106;28;20224;-89
2022/07/26 03:31:11;;;;;;;3.00;2.80;;;23.10;91.10;23.90;96366.00;;;;5072617;28;20628;-89
2022/07/26 03:33:39;;;;;;;3.47;2.77;;;23.10;91.10;23.90;96359.00;;;;5073838;28;20200;-89
2022/07/26 03:36:07;;;;;;;3.50;2.80;;;23.10;91.10;23.90;96359.00;;;;5073872;28;20249;-89
2022/07/26 03:38:35;;;;;;;3.07;2.40;;;23.10;91.00;23.90;96357.00;;;;5073964;28;20292;-88
2022/07/26 03:41:03;;;;;;;3.00;2.80;;;23.10;91.00;23.90;96353.00;;;;5073716;28;20196;-89
2022/07/26 03:43:31;;;;;;;2.80;2.60;;;23.10;91.00;23.90;96345.00;;;;5074480;28;20683;-88
2022/07/26 03:45:58;;;;;;;2.60;2.40;;;23.10;91.00;23.90;96354.00;;;;5084293;28;20312;-88
2022/07/26 03:48:25;;;;;;;2.30;2.17;;;23.10;91.00;23.90;96354.00;;;;5094392;28;20276;-88
2022/07/26 03:50:52;;;;;;;2.60;2.27;;;23.10;91.00;23.90;96357.00;;;;5089651;28;20758;-87
2022/07/26 03:53:20;;;;;;;2.67;2.47;;;23.10;91.00;23.90;96359.00;;;;5073792;28;20204;-88
2022/07/26 03:58:33;;;;;;;3.07;2.53;;;23.10;91.00;23.80;96355.00;;;;5074649;28;20231;-87
2022/07/26 04:01:00;;;;;;;2.70;2.50;;;23.10;91.00;23.80;96353.00;;;;5073861;28;20313;-88
2022/07/26 04:03:27;;;;;;;3.20;2.50;;;23.10;91.30;23.80;96356.00;;;;5074045;28;20212;-89
2022/07/26 04:05:55;;;;;;;2.80;2.60;;;23.10;91.00;23.80;96350.00;;;;5074481;28;20250;-89
2022/07/26 04:08:25;;;;;;;3.10;2.77;;;23.10;91.00;23.80;96352.00;;;;5073858;28;20224;-89
2022/07/26 04:10:55;;;;;;;2.97;2.77;;;23.10;91.10;23.80;96355.00;;;;5044898;28;20203;-83
2022/07/26 04:13:27;;;;;;;3.73;2.80;;;23.10;91.10;23.80;96358.00;;;;5070178;28;20192;-85
2022/07/26 04:16:03;;;;;;;2.67;2.47;;;23.10;91.10;23.80;96363.00;;;;5072190;28;20227;-84
2022/07/26 04:18:35;;;;;;;2.77;2.50;;;23.10;91.00;23.80;96364.00;;;;5073756;28;20789;-85
2022/07/26 04:21:09;;;;;;;2.60;2.40;;;23.00;91.00;23.80;96359.00;;;;5065287;28;20230;-85
2022/07/26 04:23:38;;;;;;;2.33;2.13;;;23.00;90.90;23.80;96359.00;;;;5073216;28;20200;-85
2022/07/26 04:26:07;;;;;;;4.43;2.47;;;23.00;90.90;23.80;96372.00;;;;5073021;28;20204;-85
2022/07/26 04:28:39;;;;;;;4.03;2.70;;;23.00;91.20;23.80;96371.00;;;;5072891;28;20242;-84
2022/07/26 04:31:08;;;;;;;2.77;2.57;;;23.00;90.90;23.80;96369.00;;;;5071416;28;20204;-84
2022/07/26 04:33:41;;;;;;;2.50;2.30;;;23.00;90.90;23.80;96373.00;;;;5073103;28;20196;-83
2022/07/26 04:36:09;;;;;;;4.67;2.77;;;23.00;90.90;23.80;96374.00;;;;5074172;28;20214;-84
2022/07/26 04:38:42;;;;;;;2.63;2.43;;;23.00;91.00;23.80;96376.00;;;;5073248;28;20281;-86
2022/07/26 04:41:09;;;;;;;2.77;2.30;;;23.00;91.00;23.80;96372.00;;;;5073670;28;20548;-87
2022/07/26 04:43:36;;;;;;;2.73;2.43;;;23.00;91.10;23.90;96379.00;;;;5072994;28;20216;-85
2022/07/26 04:46:04;;;;;;;2.43;2.23;;;23.00;91.20;23.90;96377.00;;;;5072335;28;20204;-88
2022/07/26 04:48:33;;;;;;;3.73;2.37;;;23.00;91.20;23.90;96386.00;;;;5072557;28;20269;-86
2022/07/26 04:51:00;;;;;;;3.60;2.53;;;23.00;91.30;23.90;96386.00;;;;5072381;28;20216;-88
2022/07/26 04:53:28;;;;;;;2.47;2.27;;;23.00;91.30;23.90;96382.00;;;;5067819;28;20200;-89
2022/07/26 04:55:55;;;;;;;2.40;2.20;;;23.10;91.40;23.90;96385.00;;;;5071957;28;20600;-88
2022/07/26 04:58:22;;;;;;;3.20;2.37;;;23.10;91.40;24.00;96378.00;;;;5075136;28;20230;-88
2022/07/26 05:00:50;;;;;;;3.10;2.40;;;23.10;91.40;24.00;96378.00;;;;5071593;28;20296;-89
2022/07/26 05:03:17;;;;;;;3.00;2.80;;;23.10;91.50;24.00;96380.00;;;;5071825;28;20212;-88
2022/07/26 05:05:46;;;;;;;3.80;2.50;;;23.10;91.50;24.00;96378.00;;;;5073957;28;20208;-89
2022/07/26 05:08:16;;;;;;;3.00;2.30;;;23.10;91.50;24.00;96378.00;;;;5071799;28;20262;-89
2022/07/26 05:10:45;;;;;;;2.87;2.60;;;23.20;91.50;24.00;96383.00;;;;5071977;28;20317;-88
2022/07/26 05:13:12;;;;;;;2.57;2.40;;;23.20;91.50;24.10;96379.00;;;;5068192;28;20250;-89
2022/07/26 05:15:39;;;;;;;2.90;2.70;;;23.20;91.50;24.10;96383.00;;;;5078813;28;20672;-89
2022/07/26 05:18:12;;;;;;;3.07;2.40;;;23.20;91.50;24.10;96377.00;;;;5088832;28;20627;-89
2022/07/26 05:20:43;;;;;;;2.40;2.20;;;23.20;91.50;24.10;96388.00;;;;5071108;28;20199;-88
2022/07/26 05:23:12;;;;;;;3.43;2.73;;;23.20;91.50;24.10;96374.00;;;;5070538;28;20215;-87
2022/07/26 05:25:40;;;;;;;2.60;2.40;;;23.30;91.50;24.10;96376.00;;;;5069705;28;20211;-87
2022/07/26 05:28:11;;;;;;;2.90;2.70;;;23.30;91.50;24.20;96377.00;;;;5070829;28;20299;-88
2022/07/26 05:30:48;;;;;;;4.13;2.23;;;23.30;91.50;24.20;96378.00;;;;5069300;28;20205;-87
2022/07/26 05:33:19;;;;;;;3.07;2.20;;;23.30;91.50;24.20;96386.00;;;;5069649;28;20241;-88
2022/07/26 05:35:46;;;;;;;2.50;2.30;;;23.30;91.50;24.20;96388.00;;;;5070433;28;20623;-88
2022/07/26 05:38:15;;;;;;;3.73;2.47;;;23.30;91.60;24.20;96398.00;;;;5071048;28;20696;-88
2022/07/26 05:40:42;;;;;;;2.37;2.27;;;23.30;91.60;24.20;96391.00;;;;5071254;28;20222;-89
2022/07/26 05:43:09;;;;;;;2.23;2.13;;;23.40;91.60;24.30;96399.00;;;;5076504;28;20361;-87
2022/07/26 05:45:36;;;;;;;3.87;2.30;;;23.40;91.60;24.30;96391.00;;;;5070698;28;20614;-87
2022/07/26 05:48:04;;;;;;;2.60;2.40;;;23.40;91.70;24.30;96393.00;;;;5070783;28;20700;-87
2022/07/26 05:50:32;;;;;;;2.60;2.40;;;23.40;91.60;24.30;96395.00;;;;5070834;28;20205;-87
2022/07/26 05:52:59;;;;;;;2.53;2.33;;;23.40;91.70;24.40;96394.00;;;;5072499;28;20206;-86
2022/07/26 05:55:28;;;;;;;3.10;2.90;;;23.50;91.70;24.40;96396.00;;;;5070997;28;20633;-85
2022/07/26 05:57:55;;;;;;;3.90;2.37;;;23.50;91.70;24.40;96391.00;;;;5071378;28;20622;-85
2022/07/26 06:00:22;;;;;;;2.70;2.50;;;23.50;91.70;24.40;96397.00;;;;5070297;28;20253;-85
2022/07/26 06:02:49;;;;;;;2.63;2.43;;;23.50;91.70;24.50;96393.00;;;;5067679;28;20209;-86
2022/07/26 06:05:16;;;;;;;2.73;2.40;;;23.50;91.70;24.50;96389.00;;;;5071025;28;20191;-85
2022/07/26 06:07:44;;;;;;;3.07;2.33;;;23.50;91.70;24.50;96393.00;;;;5070810;28;20316;-86
2022/07/26 06:10:11;;;;;;;2.57;2.37;;;23.60;91.80;24.50;96403.00;;;;5070492;28;20202;-86
2022/07/26 06:12:40;;;;;;;2.73;2.43;;;23.60;91.80;24.50;96396.00;;;;5094744;22;20313;-86
2022/07/26 06:15:08;;;;;;;3.47;2.73;;;23.60;91.80;24.60;96389.00;;;;5072385;28;20197;-86
2022/07/26 06:17:40;;;;;;;2.53;2.33;;;23.60;91.80;24.60;96400.00;;;;5070292;28;20685;-87
2022/07/26 06:20:09;;;;;;;2.40;2.30;;;23.70;91.90;24.70;96396.00;;;;5064433;28;20201;-85
2022/07/26 06:22:39;;;;;;;3.37;3.07;;;23.70;92.00;24.70;96396.00;;;;5072350;28;20308;-86
2022/07/26 06:25:10;;;;;;;3.53;2.50;;;23.70;92.00;24.70;96396.00;;;;5066689;28;20219;-86
2022/07/26 06:27:38;;;;;;;3.70;2.77;;;23.70;92.00;24.80;96400.00;;;;5072491;28;20201;-86
2022/07/26 06:30:09;;;;;;;3.77;2.50;;;23.80;92.00;24.80;96406.00;;;;5062920;28;20278;-86
2022/07/26 06:32:36;;;;;;;3.13;2.50;;;23.80;92.00;24.90;96400.00;;;;5060934;28;20242;-86
2022/07/26 06:35:04;;;;;;;2.90;2.70;;;23.90;92.00;24.90;96399.00;;;;5067288;28;20616;-86
2022/07/26 06:37:31;;;;;;;3.40;2.50;;;23.90;92.00;24.90;96397.00;;;;5065554;28;21062;-86
2022/07/26 06:39:58;;;;;;;3.00;2.77;;;23.90;92.00;24.90;96393.00;;;;5057146;28;20211;-85
2022/07/26 06:42:25;;;;;;;4.80;2.97;;;23.90;91.90;25.00;96401.00;;;;5053524;28;20233;-86
2022/07/26 06:44:53;;;;;;;5.87;2.70;;;24.00;92.00;25.00;96393.00;;;;5061016;28;20288;-85
2022/07/26 06:47:21;;;;;;;3.50;2.50;;;24.00;92.00;25.00;96408.00;;;;5063334;28;20745;-86
2022/07/26 06:49:48;;;;;;;3.63;2.57;;;24.00;91.90;25.00;96405.00;;;;5052489;28;20226;-85
2022/07/26 06:52:15;;;;;;;2.60;2.33;;;24.00;91.90;25.10;96411.00;;;;5054735;28;20233;-86
2022/07/26 06:54:42;;;;;;;2.93;2.40;;;24.10;92.00;25.10;96416.00;;;;5064902;28;20628;-86
2022/07/26 06:57:10;;;;;;;2.77;2.20;;;24.10;92.00;25.10;96405.00;;;;5061487;28;20298;-86
2022/07/26 06:59:37;;;;;;;3.70;2.63;;;24.10;91.90;25.20;96410.00;;;;5059864;28;20207;-86
2022/07/26 07:02:06;;;;;;;2.70;2.50;;;24.10;91.90;25.20;96413.00;;;;5062742;28;20283;-86
2022/07/26 07:04:34;;;;;;;3.07;2.73;;;24.20;91.80;25.20;96411.00;;;;5067087;28;20229;-86
2022/07/26 07:07:04;;;;;;;3.33;2.17;;;24.20;91.90;25.20;96409.00;;;;5073399;28;20655;-86
2022/07/26 07:09:31;;;;;;;3.73;2.40;;;24.20;91.90;25.30;96425.00;;;;5060114;28;20208;-86
2022/07/26 07:11:58;;;;;;;4.27;2.40;;;24.20;91.90;25.30;96419.00;;;;5059086;28;20202;-86
2022/07/26 07:14:26;;;;;;;2.83;2.50;;;24.30;91.80;25.30;96417.00;;;;5057022;28;20221;-86
2022/07/26 07:16:53;;;;;;;2.60;2.40;;;24.30;92.10;25.30;96416.00;;;;5054184;28;20236;-86
2022/07/26 07:19:22;;;;;;;2.77;2.33;;;24.20;91.70;25.30;96408.00;;;;5060401;28;20190;-85
2022/07/26 07:21:52;;;;;;;2.50;2.30;;;24.30;91.70;25.40;96408.00;;;;5054376;28;20211;-86
2022/07/26 07:24:20;;;;;;;4.10;2.40;;;24.30;91.60;25.40;96410.00;;;;5058544;28;20745;-85
2022/07/26 07:26:47;;;;;;;4.27;2.20;;;24.30;91.60;25.40;96409.00;;;;5065789;28;20199;-85
2022/07/26 07:29:19;;;;;;;2.93;2.67;;;24.30;91.70;25.40;96398.00;;;;5051868;28;20241;-85
2022/07/26 07:31:49;;;;;;;2.53;2.33;;;24.30;91.70;25.50;96404.00;;;;5058245;28;20206;-86
2022/07/26 07:34:21;;;;;;;2.97;2.50;;;24.40;91.80;25.50;96418.00;;;;5066159;28;20222;-86
2022/07/26 07:36:50;;;;;;;2.73;2.53;;;24.40;91.90;25.50;96426.00;;;;5053135;28;20196;-85
2022/07/26 07:39:18;;;;;;;4.40;3.00;;;24.40;91.90;25.50;96418.00;;;;5054095;28;20199;-86
2022/07/26 07:41:46;;;;;;;2.87;2.67;;;24.40;91.90;25.60;96413.00;;;;5061837;28;20249;-84
2022/07/26 07:44:13;;;;;;;3.17;2.70;;;24.50;91.90;25.60;96418.00;;;;5068611;28;20640;-84
2022/07/26 07:46:40;;;;;;;3.57;2.90;;;24.50;92.00;25.70;96410.00;;;;5064737;28;20696;-86
2022/07/26 07:49:09;;;;;;;2.90;2.70;;;24.60;92.00;25.70;96414.00;;;;5055936;28;20552;-86
2022/07/26 07:51:36;;;;;;;2.50;2.30;;;24.60;91.90;25.80;96418.00;;;;5062753;28;20668;-86
2022/07/26 07:54:05;;;;;;;3.73;2.67;;;24.60;91.80;25.80;96417.00;;;;5053484;28;20778;-84
2022/07/26 07:56:32;;;;;;;2.63;2.47;;;24.60;91.70;25.80;96423.00;;;;5052481;28;20200;-86
2022/07/26 07:58:59;;;;;;;2.70;2.50;;;24.60;91.60;25.80;96424.00;;;;5061070;28;20652;-87
2022/07/26 08:01:27;;;;;;;2.43;2.30;;;24.70;91.40;25.80;96419.00;;;;5068927;28;20195;-86
2022/07/26 08:03:54;;;;;;;2.60;2.40;;;24.70;91.30;25.70;96417.00;;;;5066709;28;20277;-86
2022/07/26 08:06:21;;;;;;;2.53;2.17;;;24.60;91.10;25.70;96420.00;;;;5049842;28;20691;-85
2022/07/26 08:08:48;;;;;;;2.57;2.33;;;24.60;91.10;25.70;96424.00;;;;5061498;28;20316;-85
2022/07/26 08:11:17;;;;;;;2.00;1.90;;;24.60;91.10;25.70;96429.00;;;;5067587;28;20226;-85
2022/07/26 08:13:44;;;;;;;2.50;2.30;;;24.60;91.00;25.70;96428.00;;;;5066608;28;20289;-85
2022/07/26 08:16:11;;;;;;;2.17;1.97;;;24.60;90.90;25.70;96429.00;;;;5063578;28;20584;-86
2022/07/26 08:18:38;;;;;;;2.33;2.20;;;24.60;90.80;25.60;96424.00;;;;5065947;28;20219;-85
2022/07/26 08:21:06;;;;;;;2.20;2.00;;;24.60;90.90;25.60;96418.00;;;;5066848;28;20617;-85
2022/07/26 08:23:33;;;;;;;2.50;2.30;;;24.60;91.00;25.60;96433.00;;;;5066224;28;20258;-86
2022/07/26 08:26:00;;;;;;;2.60;2.40;;;24.60;91.00;25.70;96435.00;;;;5058657;28;20232;-85
2022/07/26 08:28:33;;;;;;;3.03;2.53;;;24.60;91.00;25.70;96426.00;;;;5072362;28;20196;-86
2022/07/26 08:31:00;;;;;;;2.80;2.60;;;24.60;91.20;25.80;96438.00;;;;5062713;28;20196;-86
2022/07/26 08:33:27;;;;;;;2.77;2.37;;;24.60;91.40;25.90;96439.00;;;;5064647;28;20255;-86
2022/07/26 08:35:54;;;;;;;2.87;2.60;;;24.60;91.50;25.90;96436.00;;;;5066331;28;20203;-85
2022/07/26 08:38:22;;;;;;;2.70;2.50;;;24.70;91.60;26.00;96445.00;;;;5060973;28;20199;-85
2022/07/26 08:40:49;;;;;;;2.77;2.50;;;24.70;91.60;26.00;96443.00;;;;5052448;28;20206;-86
2022/07/26 08:43:16;;;;;;;3.17;2.57;;;24.80;91.60;26.00;96442.00;;;;5060589;28;20383;-85
2022/07/26 08:45:46;;;;;;;3.40;2.30;;;24.80;91.40;26.10;96451.00;;;;5051806;28;20754;-86
2022/07/26 08:48:13;;;;;;;1.90;1.80;;;24.80;91.10;26.10;96457.00;;;;5056174;28;20200;-85
2022/07/26 08:50:41;;;;;;;2.10;2.00;;;24.90;91.00;26.10;96455.00;;;;5060314;28;20295;-85
2022/07/26 08:53:11;;;;;;;2.17;2.07;;;24.90;90.80;26.10;96453.00;;;;5054943;28;20295;-85
2022/07/26 08:55:39;;;;;;;2.33;2.17;;;24.90;90.50;26.10;96462.00;;;;5051073;28;20553;-86
2022/07/26 08:58:06;;;;;;;2.77;2.10;;;24.90;90.30;26.10;96463.00;;;;5052746;28;20220;-84
2022/07/26 09:00:37;;;;;;;2.13;2.00;;;24.90;90.20;26.10;96460.00;;;;5054481;28;20219;-85
2022/07/26 09:03:05;;;;;;;2.70;2.03;;;24.90;90.20;26.10;96459.00;;;;5061867;28;20296;-86
2022/07/26 09:05:36;;;;;;;2.10;2.00;;;24.90;90.10;26.10;96473.00;;;;5055250;28;20254;-86
2022/07/26 09:08:24;;;;;;;2.33;1.70;;;24.90;90.10;26.10;96470.00;;;;5066553;28;20191;-85
2022/07/26 09:10:54;;;;;;;2.67;1.67;;;24.90;89.30;26.10;96467.00;;;;5056198;28;20203;-86
2022/07/26 09:13:24;;;;;;;2.50;2.30;;;24.90;90.10;26.10;96470.00;;;;5060384;28;20231;-85
2022/07/26 09:16:09;;;;;;;2.10;2.00;;;25.00;89.40;26.10;96460.00;;;;5047571;28;20553;-85
2022/07/26 09:18:38;;;;;;;2.20;1.87;;;25.00;87.60;26.10;96449.00;;;;5069037;28;20726;-85
2022/07/26 09:21:06;;;;;;;1.90;1.80;;;25.00;89.90;26.20;96465.00;;;;5054243;28;20229;-86
2022/07/26 09:23:41;;;;;;;1.50;1.40;;;25.00;89.30;26.20;96468.00;;;;5059075;28;21802;-85
2022/07/26 09:26:08;;;;;;;1.80;1.70;;;25.00;87.50;26.20;96468.00;;;;5064066;28;20187;-85
2022/07/26 09:28:35;;;;;;;4.13;2.00;;;25.00;88.60;26.20;96456.00;;;;5066281;28;20206;-85
2022/07/26 09:31:05;;;;;;;2.17;1.83;;;25.00;89.20;26.30;96459.00;;;;5059152;28;20288;-86
2022/07/26 09:33:47;;;;;;;1.97;1.67;;;25.10;89.90;26.40;96452.00;;;;5055482;28;20224;-85
2022/07/26 09:36:16;;;;;;;2.20;1.90;;;25.20;89.20;26.50;96455.00;;;;5060962;28;20220;-84
2022/07/26 09:38:46;;;;;;;2.33;1.53;;;25.20;90.00;26.60;96473.00;;;;5055901;28;20262;-86
2022/07/26 09:41:25;;;;;;;2.00;1.70;;;25.30;89.10;26.70;96483.00;;;;5069004;28;20207;-85
2022/07/26 09:43:54;;;;;;;2.20;2.10;;;25.40;87.60;26.70;96475.00;;;;5063862;28;20238;-85
2022/07/26 09:46:24;;;;;;;2.03;1.93;;;25.40;89.10;26.80;96475.00;;;;5058584;28;20656;-85
2022/07/26 09:48:55;;;;;;;1.60;1.37;;;25.50;88.70;26.80;96464.00;;;;5066097;28;20207;-85
2022/07/26 09:51:41;;;;;;;2.77;1.80;;;25.50;88.30;26.90;96465.00;;;;5048633;28;20193;-86
2022/07/26 09:54:09;;;;;;;3.00;1.97;;;25.60;88.10;27.00;96468.00;;;;5062371;28;20308;-85
2022/07/26 09:56:46;;;;;;;3.80;1.80;;;25.60;88.20;27.00;96469.00;;;;5058432;28;20662;-84
2022/07/26 09:59:16;;;;;;;4.63;1.73;;;25.70;87.80;27.00;96470.00;;;;5054947;28;20216;-85
2022/07/26 10:01:43;;;;;;;3.33;2.10;;;25.70;87.50;27.00;96471.00;;;;5054879;28;20261;-85
2022/07/26 10:04:13;;;;;;;2.47;1.80;;;25.60;87.60;27.10;96476.00;;;;5063768;28;20682;-85
2022/07/26 10:06:40;;;;;;;1.67;1.57;;;25.80;87.70;27.10;96470.00;;;;5051737;28;20193;-86
2022/07/26 10:09:09;;;;;;;1.97;1.87;;;25.90;87.40;27.20;96485.00;;;;5065434;28;20237;-86
2022/07/26 10:11:42;;;;;;;1.97;1.83;;;25.90;87.50;27.20;96486.00;;;;5052741;28;20245;-86
2022/07/26 10:14:40;;;;;;;2.23;1.70;;;25.90;86.70;27.20;96473.00;;;;5048041;28;20577;-86
2022/07/26 10:17:41;;;;;;;1.77;1.67;;;26.00;84.50;27.20;96465.00;;;;5056212;28;20241;-85
2022/07/26 10:20:26;;;;;;;2.40;1.90;;;26.10;83.50;27.40;96469.00;;;;5060591;28;20219;-86
2022/07/26 10:22:54;;;;;;;2.37;2.27;;;26.20;87.60;27.60;96461.00;;;;5056139;28;20259;-85
2022/07/26 10:25:47;;;;;;;2.10;1.97;;;26.50;88.60;27.80;96461.00;;;;5057075;28;20248;-85
2022/07/26 10:28:26;;;;;;;4.70;1.83;;;26.70;88.00;28.10;96475.00;;;;5051636;28;20283;-85
2022/07/26 10:31:29;;;;;;;2.13;2.00;;;26.90;88.20;28.30;96463.00;;;;5061798;28;20636;-84
2022/07/26 10:33:59;;;;;;;1.73;1.63;;;27.10;90.80;28.60;96457.00;;;;5047132;28;20212;-85
2022/07/26 10:36:31;;;;;;;3.27;2.10;;;27.40;90.40;28.80;96462.00;;;;5066057;28;20284;-85
2022/07/26 10:39:05;;;;;;;1.60;1.50;;;27.60;89.20;29.00;96446.00;;;;5067259;28;20193;-85
2022/07/26 10:41:40;;;;;;;1.20;1.20;;;27.80;90.10;29.20;96453.00;;;;5056161;28;20217;-86
2022/07/26 10:44:27;;;;;;;1.75;1.65;;;28.00;88.60;29.40;96452.00;;;;5058131;28;20273;-86
2022/07/26 10:47:10;;;;;;;2.28;2.08;;;28.30;86.50;29.60;96450.00;;;;5049927;28;20291;-85
2022/07/26 10:49:39;;;;;;;1.60;1.50;;;28.60;84.90;29.80;96454.00;;;;5064725;28;20562;-83
2022/07/26 10:52:17;;;;;;;2.10;1.90;;;28.80;87.00;29.90;96452.00;;;;5049717;28;20197;-85
2022/07/26 10:55:15;;;;;;;2.22;1.17;;;29.00;82.90;30.10;96443.00;;;;5057671;28;20228;-84
2022/07/26 10:57:48;;;;;;;1.55;1.45;;;29.30;81.70;30.30;96449.00;;;;5057920;28;20296;-85
2022/07/26 11:00:23;;;;;;;1.70;1.60;;;29.40;82.00;30.40;96449.00;;;;5058704;28;20197;-84
2022/07/26 11:02:59;;;;;;;4.10;2.13;;;29.50;80.20;30.50;96441.00;;;;5051706;28;20300;-85
2022/07/26 11:05:30;;;;;;;1.42;1.33;;;29.60;79.00;30.50;96455.00;;;;5063317;28;20216;-85
2022/07/26 11:08:07;;;;;;;1.60;1.50;;;29.60;76.50;30.40;96449.00;;;;5066318;28;20193;-84